Time;durP1;ratioP1;P1;durP2;ratioP2;P2;SDS_P1;SDS_P2;PMS_P1;PMS_P2;Temp;Humidity;BMP_temperature;BMP_pressure;BME280_temperature;BME280_humidity;BME280_pressure;Samples;Min_cycle;Max_cycle;Signal;HPM_P1;HPM_P2
2022/09/28 03:01:28;;;;;;;0.60;0.60;;;10.20;95.10;;;;;;5658593;23;20551;-79
2022/09/28 03:04:01;;;;;;;0.60;0.60;;;10.20;95.00;;;;;;4938526;29;20938;-79
2022/09/28 03:06:33;;;;;;;0.60;0.60;;;10.10;95.40;;;;;;4938772;29;20492;-76
2022/09/28 03:09:05;;;;;;;0.70;0.60;;;10.00;95.30;;;;;;4938724;29;20436;-77
2022/09/28 03:11:37;;;;;;;0.70;0.60;;;10.10;95.80;;;;;;4938592;29;20463;-76
2022/09/28 03:14:04;;;;;;;0.67;0.67;;;10.10;95.40;;;;;;4940084;29;20496;-76
2022/09/28 03:16:32;;;;;;;0.60;0.60;;;10.20;95.20;;;;;;4938462;29;20547;-77
2022/09/28 03:18:59;;;;;;;0.87;0.73;;;10.20;94.80;;;;;;4938519;29;20464;-76
2022/09/28 03:21:26;;;;;;;0.60;0.60;;;10.20;94.80;;;;;;4938395;29;20618;-76
2022/09/28 03:23:52;;;;;;;0.97;0.70;;;10.30;94.90;;;;;;4938107;29;20948;-76
2022/09/28 03:26:19;;;;;;;0.60;0.60;;;10.40;94.40;;;;;;4938051;29;20999;-76
2022/09/28 03:28:46;;;;;;;0.70;0.60;;;10.30;94.30;;;;;;4938000;29;20999;-76
2022/09/28 03:31:12;;;;;;;0.77;0.77;;;10.20;94.60;;;;;;4938225;29;20482;-76
2022/09/28 03:33:40;;;;;;;0.60;0.60;;;10.30;94.90;;;;;;4936906;29;20879;-77
2022/09/28 03:36:08;;;;;;;0.60;0.60;;;10.40;94.50;;;;;;4937977;29;20488;-76
2022/09/28 03:38:35;;;;;;;0.97;0.80;;;10.30;94.20;;;;;;4938094;29;20456;-76
2022/09/28 03:41:01;;;;;;;0.80;0.70;;;10.30;94.50;;;;;;4938040;29;20471;-76
2022/09/28 03:43:30;;;;;;;0.60;0.60;;;10.30;94.90;;;;;;4937763;29;20947;-77
2022/09/28 03:45:58;;;;;;;0.80;0.70;;;10.30;94.60;;;;;;4938017;29;20452;-76
2022/09/28 03:48:25;;;;;;;0.70;0.70;;;10.20;94.80;;;;;;4937964;29;20507;-76
2022/09/28 03:50:55;;;;;;;0.60;0.57;;;10.10;95.70;;;;;;4937852;29;20473;-76
2022/09/28 03:53:22;;;;;;;0.70;0.60;;;10.00;95.80;;;;;;4937899;29;20519;-76
2022/09/28 03:55:52;;;;;;;0.60;0.60;;;10.00;95.80;;;;;;4937493;29;20484;-76
2022/09/28 03:58:19;;;;;;;0.67;0.60;;;10.00;95.80;;;;;;4937758;29;20519;-76
2022/09/28 04:00:45;;;;;;;0.90;0.60;;;9.90;95.80;;;;;;4937501;29;20504;-76
2022/09/28 04:03:12;;;;;;;0.67;0.67;;;9.90;95.80;;;;;;4937759;29;20491;-77
2022/09/28 04:05:39;;;;;;;0.70;0.70;;;10.00;95.80;;;;;;4938292;29;20448;-76
2022/09/28 04:08:07;;;;;;;0.70;0.60;;;10.10;95.80;;;;;;4937567;29;20460;-77
2022/09/28 04:10:33;;;;;;;0.60;0.50;;;10.10;95.80;;;;;;4937174;29;20862;-76
2022/09/28 04:13:00;;;;;;;0.70;0.60;;;10.10;95.80;;;;;;4937183;29;21006;-77
2022/09/28 04:15:26;;;;;;;0.70;0.60;;;10.20;95.80;;;;;;4937360;29;20539;-76
2022/09/28 04:17:53;;;;;;;0.60;0.60;;;10.40;95.80;;;;;;4937459;29;20508;-77
2022/09/28 04:20:20;;;;;;;0.60;0.50;;;10.60;95.50;;;;;;4937393;29;20490;-76
2022/09/28 04:22:47;;;;;;;0.70;0.60;;;10.60;94.30;;;;;;4937297;29;20480;-76
2022/09/28 04:25:15;;;;;;;0.60;0.50;;;10.70;93.40;;;;;;4937295;29;20443;-76
2022/09/28 04:30:26;;;;;;;0.60;0.60;;;10.80;92.10;;;;;;4936980;29;20416;-76
2022/09/28 04:32:53;;;;;;;0.63;0.63;;;10.90;91.30;;;;;;4937160;29;20452;-77
2022/09/28 04:35:20;;;;;;;0.60;0.50;;;10.90;91.10;;;;;;4936716;29;21007;-77
2022/09/28 04:37:46;;;;;;;0.60;0.57;;;10.90;90.40;;;;;;4937048;29;20484;-77
2022/09/28 04:40:14;;;;;;;0.70;0.57;;;11.00;90.90;;;;;;4936978;29;20456;-77
2022/09/28 04:42:41;;;;;;;0.60;0.60;;;11.20;90.20;;;;;;4936901;29;20476;-77
2022/09/28 04:45:09;;;;;;;0.60;0.60;;;11.10;89.30;;;;;;4936533;29;20452;-77
2022/09/28 04:47:36;;;;;;;0.80;0.60;;;11.00;89.40;;;;;;4936572;29;20969;-77
2022/09/28 04:50:03;;;;;;;0.60;0.60;;;10.90;89.00;;;;;;4936843;29;20511;-77
2022/09/28 04:52:29;;;;;;;0.70;0.60;;;10.90;89.40;;;;;;4936710;29;20472;-77
2022/09/28 04:54:56;;;;;;;0.63;0.53;;;11.00;89.00;;;;;;4936708;29;20460;-77
2022/09/28 04:57:24;;;;;;;0.90;0.90;;;10.90;89.20;;;;;;4936755;29;20451;-77
2022/09/28 04:59:50;;;;;;;0.60;0.50;;;10.90;89.30;;;;;;4936414;29;20460;-77
2022/09/28 05:02:17;;;;;;;0.60;0.60;;;10.90;89.30;;;;;;4936269;29;20538;-77
2022/09/28 05:04:44;;;;;;;0.60;0.60;;;11.00;89.00;;;;;;4936690;29;20451;-77
2022/09/28 05:07:10;;;;;;;0.60;0.60;;;11.00;89.10;;;;;;4936604;29;20444;-77
2022/09/28 05:09:37;;;;;;;0.60;0.60;;;11.10;88.90;;;;;;4936556;29;20463;-77
2022/09/28 05:12:04;;;;;;;1.90;0.93;;;11.10;88.50;;;;;;4936401;29;20468;-76
2022/09/28 05:14:32;;;;;;;0.60;0.50;;;11.10;88.50;;;;;;4936471;29;20459;-76
2022/09/28 05:16:58;;;;;;;0.60;0.60;;;11.20;88.00;;;;;;4936390;29;20488;-77
2022/09/28 05:19:25;;;;;;;0.60;0.50;;;11.30;87.90;;;;;;4936479;29;20455;-77
2022/09/28 05:21:52;;;;;;;0.60;0.60;;;11.20;88.00;;;;;;4936381;29;20535;-77
2022/09/28 05:24:18;;;;;;;0.80;0.50;;;11.20;88.10;;;;;;4936003;29;20872;-77
2022/09/28 05:26:45;;;;;;;0.60;0.50;;;11.20;88.20;;;;;;4936032;29;20484;-77
2022/09/28 05:29:12;;;;;;;0.60;0.50;;;11.20;88.30;;;;;;4936310;29;20527;-76
2022/09/28 05:31:40;;;;;;;0.60;0.60;;;11.20;88.00;;;;;;4936185;29;20533;-76
2022/09/28 05:34:06;;;;;;;0.80;0.50;;;11.10;88.00;;;;;;4935956;29;20448;-76
2022/09/28 05:36:33;;;;;;;0.60;0.57;;;11.10;87.80;;;;;;4936176;29;20480;-76
2022/09/28 05:39:02;;;;;;;0.60;0.60;;;11.10;88.10;;;;;;4935908;29;20947;-76
2022/09/28 05:41:29;;;;;;;0.60;0.60;;;11.20;88.20;;;;;;4936084;29;20479;-77
2022/09/28 05:43:56;;;;;;;0.60;0.60;;;11.20;87.90;;;;;;4935849;29;20921;-76
2022/09/28 05:46:23;;;;;;;0.60;0.50;;;11.20;88.10;;;;;;4935848;29;20480;-76
2022/09/28 05:48:51;;;;;;;0.70;0.70;;;11.20;87.70;;;;;;4935864;29;20460;-77
2022/09/28 05:51:18;;;;;;;0.60;0.60;;;11.10;88.00;;;;;;4936046;29;20560;-76
2022/09/28 05:53:45;;;;;;;0.70;0.57;;;11.10;88.30;;;;;;4936068;29;20539;-76
2022/09/28 05:56:12;;;;;;;0.70;0.70;;;11.10;88.80;;;;;;4935997;29;20542;-77
2022/09/28 05:58:38;;;;;;;0.90;0.60;;;11.20;88.10;;;;;;4939059;29;20452;-77
2022/09/28 06:01:05;;;;;;;0.60;0.50;;;11.10;88.30;;;;;;4939631;29;20546;-77
2022/09/28 06:03:32;;;;;;;0.60;0.60;;;11.20;88.30;;;;;;4939924;29;20435;-76
2022/09/28 06:06:02;;;;;;;0.70;0.60;;;11.30;88.10;;;;;;4939775;29;20495;-77
2022/09/28 06:08:30;;;;;;;0.70;0.60;;;11.30;87.90;;;;;;4939743;29;20533;-76
2022/09/28 06:10:59;;;;;;;1.00;0.60;;;11.40;87.70;;;;;;4939366;29;20874;-77
2022/09/28 06:13:26;;;;;;;0.60;0.60;;;11.30;87.60;;;;;;4939638;29;20558;-77
2022/09/28 06:15:53;;;;;;;0.60;0.60;;;11.30;87.70;;;;;;4939547;29;20578;-76
2022/09/28 06:18:20;;;;;;;0.63;0.63;;;11.30;88.00;;;;;;4939587;29;20505;-76
2022/09/28 06:20:47;;;;;;;0.70;0.60;;;11.20;87.90;;;;;;4939476;29;20476;-76
2022/09/28 06:23:15;;;;;;;0.60;0.60;;;11.20;88.30;;;;;;4939486;29;20458;-77
2022/09/28 06:25:42;;;;;;;0.60;0.60;;;11.20;88.40;;;;;;4939449;29;20491;-77
2022/09/28 06:28:11;;;;;;;0.80;0.70;;;11.10;88.60;;;;;;4939368;29;20462;-77
2022/09/28 06:30:37;;;;;;;0.70;0.70;;;11.10;88.70;;;;;;4938936;29;20870;-77
2022/09/28 06:33:06;;;;;;;0.60;0.60;;;11.00;89.10;;;;;;4939324;29;20531;-77
2022/09/28 06:35:33;;;;;;;0.60;0.57;;;11.10;89.20;;;;;;4939208;29;20448;-77
2022/09/28 06:38:00;;;;;;;0.60;0.60;;;11.10;89.10;;;;;;4939233;29;20511;-77
2022/09/28 06:40:28;;;;;;;0.70;0.60;;;11.10;89.10;;;;;;4939122;29;20460;-76
2022/09/28 06:42:56;;;;;;;0.67;0.67;;;11.10;89.30;;;;;;4938805;29;20515;-77
2022/09/28 06:45:24;;;;;;;0.60;0.60;;;11.10;89.50;;;;;;4939227;29;20455;-78
2022/09/28 06:47:55;;;;;;;0.70;0.60;;;11.20;89.30;;;;;;4940536;29;20452;-77
2022/09/28 06:50:22;;;;;;;0.70;0.70;;;11.40;89.10;;;;;;4939478;29;20444;-77
2022/09/28 06:52:53;;;;;;;0.80;0.80;;;11.40;88.60;;;;;;4938809;29;20452;-78
2022/09/28 06:55:20;;;;;;;0.60;0.60;;;11.40;88.80;;;;;;4939015;29;20483;-78
2022/09/28 06:57:56;;;;;;;0.63;0.63;;;11.50;88.60;;;;;;4938944;29;20456;-78
2022/09/28 07:00:23;;;;;;;0.70;0.63;;;11.50;88.60;;;;;;4938947;29;20519;-77
2022/09/28 07:02:50;;;;;;;0.67;0.67;;;11.50;88.40;;;;;;4941479;29;20460;-78
2022/09/28 07:05:18;;;;;;;0.70;0.70;;;11.60;88.30;;;;;;4939748;29;20507;-77
2022/09/28 07:07:44;;;;;;;0.60;0.50;;;11.70;88.10;;;;;;4938969;29;20499;-77
2022/09/28 07:10:12;;;;;;;0.70;0.60;;;11.60;88.00;;;;;;4938688;29;20460;-78
2022/09/28 07:12:39;;;;;;;0.60;0.60;;;11.50;87.60;;;;;;4938274;29;20933;-77
2022/09/28 07:15:08;;;;;;;0.60;0.60;;;11.30;88.30;;;;;;4938668;29;20487;-78
2022/09/28 07:17:35;;;;;;;0.90;0.70;;;11.20;88.30;;;;;;4938579;29;20479;-78
2022/09/28 07:20:02;;;;;;;0.70;0.67;;;11.20;88.60;;;;;;4938600;29;20559;-78
2022/09/28 07:22:28;;;;;;;0.60;0.53;;;11.30;88.50;;;;;;4938480;29;20527;-77
2022/09/28 07:24:56;;;;;;;0.70;0.60;;;11.40;88.30;;;;;;4938466;29;20858;-77
2022/09/28 07:27:23;;;;;;;0.80;0.60;;;11.40;87.70;;;;;;4938086;29;20456;-78
2022/09/28 07:29:52;;;;;;;0.80;0.70;;;11.30;87.80;;;;;;4938201;29;20902;-77
2022/09/28 07:32:20;;;;;;;0.70;0.60;;;11.30;88.20;;;;;;4938293;29;20914;-78
2022/09/28 07:34:47;;;;;;;0.70;0.70;;;11.20;88.70;;;;;;4938488;29;20452;-78
2022/09/28 07:37:14;;;;;;;0.60;0.60;;;11.20;88.40;;;;;;4938237;29;20526;-77
2022/09/28 07:42:28;;;;;;;0.60;0.60;;;11.30;87.90;;;;;;4938212;29;20526;-78
2022/09/28 07:44:56;;;;;;;0.60;0.60;;;11.30;88.10;;;;;;4938488;29;20448;-77
2022/09/28 07:47:25;;;;;;;0.60;0.50;;;11.50;87.70;;;;;;4938679;29;20875;-78
2022/09/28 07:49:53;;;;;;;0.70;0.70;;;11.40;87.70;;;;;;4938845;29;20456;-78
2022/09/28 07:52:21;;;;;;;0.70;0.60;;;11.40;87.60;;;;;;4938950;29;20472;-77
2022/09/28 07:54:50;;;;;;;0.70;0.60;;;11.50;87.40;;;;;;4939338;29;20478;-77
2022/09/28 07:57:17;;;;;;;0.60;0.50;;;11.50;87.10;;;;;;4942662;29;20495;-78
2022/09/28 07:59:44;;;;;;;0.60;0.60;;;11.60;87.00;;;;;;4938589;29;20952;-77
2022/09/28 08:02:12;;;;;;;0.70;0.60;;;11.60;86.30;;;;;;4939395;29;20512;-77
2022/09/28 08:04:40;;;;;;;0.60;0.60;;;11.50;86.60;;;;;;4937950;29;20447;-78
2022/09/28 08:07:09;;;;;;;0.70;0.70;;;11.40;86.50;;;;;;4937810;29;20448;-78
2022/09/28 08:09:35;;;;;;;0.60;0.60;;;11.60;87.00;;;;;;4937705;29;20543;-77
2022/09/28 08:12:03;;;;;;;0.70;0.60;;;11.70;86.80;;;;;;4937600;29;20480;-77
2022/09/28 08:14:32;;;;;;;0.80;0.80;;;11.80;86.50;;;;;;4937359;29;20898;-77
2022/09/28 08:16:59;;;;;;;0.60;0.50;;;11.70;86.40;;;;;;4937487;29;20516;-77
2022/09/28 08:19:26;;;;;;;0.60;0.60;;;11.90;86.30;;;;;;4937757;29;20448;-78
2022/09/28 08:21:53;;;;;;;0.70;0.70;;;11.90;86.40;;;;;;4937390;29;20472;-77
2022/09/28 08:24:20;;;;;;;0.60;0.60;;;11.90;86.10;;;;;;4937413;29;20472;-78
2022/09/28 08:26:46;;;;;;;0.60;0.50;;;12.00;85.70;;;;;;4937503;29;20452;-78
2022/09/28 08:29:14;;;;;;;0.70;0.60;;;12.10;85.60;;;;;;4937472;29;20499;-77
2022/09/28 08:31:40;;;;;;;0.60;0.57;;;12.00;85.30;;;;;;4937255;29;20898;-78
2022/09/28 08:34:07;;;;;;;0.70;0.70;;;12.20;85.00;;;;;;4937052;29;20455;-78
2022/09/28 08:36:34;;;;;;;0.70;0.70;;;12.20;84.80;;;;;;4937108;29;20491;-78
2022/09/28 08:39:02;;;;;;;0.60;0.60;;;12.30;84.40;;;;;;4937164;29;20519;-78
2022/09/28 08:41:39;;;;;;;0.70;0.53;;;12.50;84.80;;;;;;4936786;29;20987;-78
2022/09/28 08:44:22;;;;;;;0.63;0.50;;;12.70;84.60;;;;;;4937242;29;20436;-78
2022/09/28 08:46:53;;;;;;;0.70;0.60;;;12.80;84.20;;;;;;4937143;29;20433;-78
2022/09/28 08:49:25;;;;;;;0.70;0.60;;;12.60;81.80;;;;;;4937067;29;20440;-78
2022/09/28 08:51:57;;;;;;;0.60;0.60;;;12.60;82.40;;;;;;4937014;29;20559;-78
2022/09/28 08:54:38;;;;;;;0.70;0.70;;;12.60;82.40;;;;;;4936978;29;20440;-78
2022/09/28 08:57:11;;;;;;;0.70;0.70;;;12.50;82.50;;;;;;4936850;29;20840;-78
2022/09/28 08:59:46;;;;;;;0.60;0.60;;;12.50;83.40;;;;;;4936912;29;20457;-78
2022/09/28 09:02:15;;;;;;;0.60;0.60;;;12.50;82.70;;;;;;4936414;29;20489;-78
2022/09/28 09:04:42;;;;;;;0.70;0.70;;;12.60;83.20;;;;;;4936803;29;20504;-78
2022/09/28 09:07:30;;;;;;;0.80;0.60;;;12.80;82.80;;;;;;4936681;29;20882;-78
2022/09/28 09:10:10;;;;;;;0.60;0.50;;;12.90;81.40;;;;;;4936857;29;20432;-78
2022/09/28 09:12:46;;;;;;;0.70;0.60;;;13.00;80.50;;;;;;4936690;29;20468;-78
2022/09/28 09:15:25;;;;;;;0.70;0.60;;;13.10;81.30;;;;;;4937870;29;20964;-78
2022/09/28 09:18:04;;;;;;;0.60;0.60;;;13.20;80.70;;;;;;4941191;29;20531;-78
2022/09/28 09:20:40;;;;;;;0.70;0.70;;;13.30;80.60;;;;;;4937906;29;20491;-78
2022/09/28 09:23:16;;;;;;;0.70;0.60;;;13.20;79.30;;;;;;4937363;29;20443;-78
2022/09/28 09:25:49;;;;;;;0.60;0.60;;;13.20;79.40;;;;;;4936723;29;20451;-78
2022/09/28 09:28:47;;;;;;;0.63;0.63;;;13.20;79.50;;;;;;4936427;29;20519;-78
2022/09/28 09:31:29;;;;;;;1.30;0.73;;;13.30;80.50;;;;;;4936389;29;20472;-78
2022/09/28 09:34:29;;;;;;;0.60;0.60;;;13.10;81.80;;;;;;4936563;29;20476;-78
2022/09/28 09:37:17;;;;;;;1.27;0.73;;;13.10;80.40;;;;;;4917288;29;20487;-78
2022/09/28 09:39:58;;;;;;;0.60;0.60;;;13.10;80.70;;;;;;4936347;29;20449;-78
2022/09/28 09:42:42;;;;;;;0.67;0.60;;;13.10;80.70;;;;;;4936457;29;20527;-78
2022/09/28 09:45:35;;;;;;;0.70;0.70;;;13.10;80.50;;;;;;4938261;29;20444;-78
2022/09/28 09:48:07;;;;;;;0.60;0.57;;;13.10;80.70;;;;;;4931458;29;20458;-77
2022/09/28 09:50:39;;;;;;;0.73;0.73;;;13.20;80.90;;;;;;4936887;29;20487;-77
2022/09/28 09:53:12;;;;;;;0.70;0.70;;;13.20;80.30;;;;;;4936292;29;20531;-77
2022/09/28 09:55:43;;;;;;;0.60;0.60;;;13.20;79.90;;;;;;4936224;29;20479;-78
2022/09/28 09:58:16;;;;;;;0.70;0.70;;;13.00;80.50;;;;;;4936088;29;20523;-78
2022/09/28 10:00:45;;;;;;;0.60;0.60;;;13.10;81.20;;;;;;4936089;29;20440;-78
2022/09/28 10:03:20;;;;;;;0.70;0.70;;;13.30;80.60;;;;;;4936280;29;20503;-78
2022/09/28 10:05:51;;;;;;;1.67;0.80;;;13.40;80.80;;;;;;4936185;29;20491;-78
2022/09/28 10:08:22;;;;;;;0.63;0.63;;;13.40;80.00;;;;;;4936174;29;20424;-78
2022/09/28 10:10:51;;;;;;;0.80;0.70;;;13.40;79.30;;;;;;4936010;29;20476;-78
2022/09/28 10:13:19;;;;;;;0.70;0.60;;;13.30;78.40;;;;;;4936188;29;20479;-78
2022/09/28 10:15:46;;;;;;;0.60;0.60;;;13.30;79.10;;;;;;4935719;29;20452;-78
2022/09/28 10:18:15;;;;;;;0.60;0.50;;;13.40;79.30;;;;;;4935639;29;20912;-78
2022/09/28 10:20:44;;;;;;;0.67;0.67;;;13.40;79.30;;;;;;4935929;29;20507;-78
2022/09/28 10:23:21;;;;;;;0.60;0.60;;;13.50;79.40;;;;;;4935974;29;20448;-78
2022/09/28 10:25:51;;;;;;;0.70;0.70;;;13.60;79.70;;;;;;4935672;29;20934;-78
2022/09/28 10:28:33;;;;;;;0.70;0.70;;;13.60;78.70;;;;;;4935953;29;20507;-78
2022/09/28 10:31:00;;;;;;;0.60;0.60;;;13.70;78.90;;;;;;4935964;29;20527;-78
2022/09/28 10:33:30;;;;;;;0.60;0.53;;;13.70;79.30;;;;;;4936123;29;21019;-78
2022/09/28 10:35:59;;;;;;;0.80;0.80;;;13.80;78.90;;;;;;4935816;29;20810;-78
2022/09/28 10:38:27;;;;;;;0.77;0.70;;;13.80;78.30;;;;;;4935805;29;20499;-78
2022/09/28 10:40:58;;;;;;;0.70;0.60;;;13.80;78.10;;;;;;4935854;29;20519;-78
2022/09/28 10:43:27;;;;;;;0.70;0.60;;;13.90;78.30;;;;;;4937014;29;20495;-78
2022/09/28 10:46:01;;;;;;;0.70;0.67;;;14.00;78.70;;;;;;4939311;29;20581;-78
2022/09/28 10:48:31;;;;;;;0.60;0.60;;;14.00;79.40;;;;;;4939102;29;20932;-78
2022/09/28 10:51:00;;;;;;;0.70;0.60;;;14.10;78.30;;;;;;4939088;29;20558;-78
2022/09/28 10:53:26;;;;;;;0.77;0.70;;;13.90;74.30;;;;;;4939148;29;20542;-78
2022/09/28 10:55:59;;;;;;;0.70;0.70;;;13.80;74.60;;;;;;4940077;29;20456;-79
2022/09/28 10:58:29;;;;;;;0.70;0.60;;;13.70;74.70;;;;;;4949516;29;20483;-78
2022/09/28 11:01:07;;;;;;;0.60;0.60;;;13.80;76.40;;;;;;4946708;29;20487;-78
2022/09/28 11:03:33;;;;;;;0.73;0.73;;;13.80;76.10;;;;;;4945068;29;20458;-78
2022/09/28 11:06:03;;;;;;;1.03;0.60;;;13.80;74.90;;;;;;4944606;29;20456;-78
2022/09/28 11:08:35;;;;;;;0.70;0.60;;;13.90;76.10;;;;;;4944021;29;20452;-78
2022/09/28 11:11:08;;;;;;;0.70;0.60;;;14.10;75.00;;;;;;4943593;29;20480;-78
2022/09/28 11:13:45;;;;;;;0.70;0.60;;;14.30;74.70;;;;;;4944624;29;20496;-79
2022/09/28 11:16:27;;;;;;;0.63;0.63;;;14.50;72.60;;;;;;4943734;29;20432;-78
2022/09/28 11:18:54;;;;;;;0.70;0.70;;;14.50;73.00;;;;;;4943759;29;20488;-79
2022/09/28 11:21:24;;;;;;;0.80;0.60;;;14.50;74.30;;;;;;4943541;29;20472;-78
2022/09/28 11:24:01;;;;;;;0.70;0.60;;;14.50;73.20;;;;;;4944035;29;20956;-78
2022/09/28 11:26:37;;;;;;;0.80;0.60;;;14.40;73.30;;;;;;4943177;29;20452;-79
2022/09/28 11:29:07;;;;;;;0.60;0.60;;;14.40;72.90;;;;;;4943100;29;20424;-79
2022/09/28 11:31:34;;;;;;;0.63;0.60;;;14.50;72.30;;;;;;4943590;29;20523;-78
2022/09/28 11:34:05;;;;;;;0.70;0.60;;;14.50;72.40;;;;;;4943564;29;20460;-78
2022/09/28 11:36:49;;;;;;;0.60;0.50;;;14.40;73.40;;;;;;4945063;29;20857;-78
2022/09/28 11:39:24;;;;;;;0.80;0.60;;;14.50;73.20;;;;;;4942384;29;20435;-77
2022/09/28 11:42:04;;;;;;;0.70;0.60;;;14.40;73.70;;;;;;4941956;29;21014;-78
2022/09/28 11:44:43;;;;;;;0.70;0.70;;;14.40;73.50;;;;;;4942282;29;20443;-78
2022/09/28 11:47:32;;;;;;;0.60;0.60;;;14.50;73.30;;;;;;4944769;29;20432;-78
2022/09/28 11:50:05;;;;;;;0.77;0.70;;;14.70;73.50;;;;;;4935747;29;20460;-78
2022/09/28 11:52:39;;;;;;;0.70;0.67;;;14.90;72.20;;;;;;4942356;29;20508;-79
2022/09/28 11:55:13;;;;;;;0.70;0.70;;;15.10;71.60;;;;;;4940479;29;20417;-78
2022/09/28 11:57:45;;;;;;;0.70;0.70;;;15.00;69.70;;;;;;4941199;29;20507;-78
2022/09/28 12:00:16;;;;;;;0.60;0.60;;;15.10;70.50;;;;;;4941269;29;20456;-78
2022/09/28 12:02:48;;;;;;;0.60;0.50;;;15.10;69.80;;;;;;4941584;29;20490;-78
2022/09/28 12:05:21;;;;;;;1.00;0.60;;;15.10;70.10;;;;;;4941079;29;20452;-78
2022/09/28 12:07:52;;;;;;;0.70;0.60;;;15.20;70.30;;;;;;4940205;29;20444;-78
2022/09/28 12:10:32;;;;;;;0.73;0.70;;;15.10;68.90;;;;;;4939035;29;20433;-78
2022/09/28 12:13:03;;;;;;;0.70;0.60;;;14.80;70.10;;;;;;4940624;29;20445;-78
2022/09/28 12:15:41;;;;;;;0.70;0.60;;;14.90;69.50;;;;;;4942645;29;20462;-78
2022/09/28 12:18:14;;;;;;;0.70;0.63;;;14.90;70.20;;;;;;4943229;29;20475;-78
2022/09/28 12:20:46;;;;;;;0.77;0.70;;;15.00;68.90;;;;;;4937953;29;20436;-77
2022/09/28 12:23:16;;;;;;;0.60;0.60;;;14.80;67.60;;;;;;4937509;29;20501;-78
2022/09/28 12:25:46;;;;;;;0.60;0.60;;;14.70;68.20;;;;;;4937494;29;20510;-78
2022/09/28 12:28:21;;;;;;;0.60;0.60;;;14.60;69.10;;;;;;4938208;29;20445;-78
2022/09/28 12:30:50;;;;;;;0.70;0.67;;;14.50;68.90;;;;;;4937141;29;20486;-78
2022/09/28 12:33:17;;;;;;;0.60;0.60;;;14.50;69.80;;;;;;4937231;29;20830;-78
2022/09/28 12:36:00;;;;;;;0.70;0.70;;;14.70;68.20;;;;;;4937202;29;20460;-77
2022/09/28 12:38:47;;;;;;;0.60;0.60;;;14.90;70.00;;;;;;4937146;29;20531;-78
2022/09/28 12:41:27;;;;;;;0.80;0.70;;;14.80;70.00;;;;;;4937043;29;20483;-78
2022/09/28 12:44:07;;;;;;;0.70;0.60;;;14.80;71.10;;;;;;4937137;29;20445;-77
2022/09/28 12:46:47;;;;;;;0.70;0.70;;;14.80;69.00;;;;;;4936675;29;20932;-78
2022/09/28 12:49:37;;;;;;;0.60;0.53;;;14.80;68.90;;;;;;4937007;29;20530;-78
2022/09/28 12:52:18;;;;;;;0.63;0.60;;;15.00;69.10;;;;;;4937633;29;20544;-78
2022/09/28 12:55:04;;;;;;;0.70;0.60;;;15.00;68.70;;;;;;4936900;29;20515;-78
2022/09/28 12:57:39;;;;;;;0.67;0.60;;;15.00;68.60;;;;;;4936756;29;20849;-78
2022/09/28 13:00:10;;;;;;;1.33;0.70;;;14.90;68.20;;;;;;4936551;29;20853;-77
2022/09/28 13:03:07;;;;;;;0.70;0.60;;;14.90;69.50;;;;;;4936322;29;20909;-78
2022/09/28 13:06:09;;;;;;;0.70;0.53;;;14.80;68.00;;;;;;4936699;29;20436;-78
2022/09/28 13:08:46;;;;;;;1.00;0.60;;;14.80;68.20;;;;;;4912033;29;21002;-77
2022/09/28 13:11:22;;;;;;;0.80;0.70;;;14.80;68.80;;;;;;4936577;29;20887;-77
2022/09/28 13:13:56;;;;;;;0.70;0.60;;;14.90;68.80;;;;;;4936631;29;20443;-77
2022/09/28 13:16:31;;;;;;;0.60;0.60;;;14.90;65.90;;;;;;4936548;29;20457;-77
2022/09/28 13:19:07;;;;;;;0.90;0.60;;;14.80;68.90;;;;;;4936573;29;20467;-78
2022/09/28 13:21:41;;;;;;;0.60;0.60;;;14.90;67.20;;;;;;4936587;29;20527;-77
2022/09/28 13:24:13;;;;;;;0.90;0.73;;;14.90;67.40;;;;;;4936935;29;20435;-77
2022/09/28 13:26:44;;;;;;;1.07;0.63;;;15.10;67.80;;;;;;4936822;29;20448;-77
2022/09/28 13:29:13;;;;;;;0.70;0.70;;;15.30;66.60;;;;;;4936482;29;20428;-78
2022/09/28 13:31:45;;;;;;;0.70;0.70;;;15.30;66.40;;;;;;4936226;29;20487;-77
2022/09/28 13:34:19;;;;;;;0.70;0.60;;;15.40;65.30;;;;;;4936477;29;20445;-77
2022/09/28 13:36:46;;;;;;;0.70;0.67;;;15.30;65.60;;;;;;4936310;29;20436;-78
2022/09/28 13:39:38;;;;;;;0.60;0.60;;;15.40;65.60;;;;;;4936000;29;21018;-78
2022/09/28 13:42:07;;;;;;;0.60;0.60;;;15.30;65.10;;;;;;4936132;29;20527;-77
2022/09/28 13:44:51;;;;;;;0.60;0.60;;;15.40;65.70;;;;;;4936159;29;20507;-77
2022/09/28 13:47:31;;;;;;;0.60;0.57;;;15.60;65.60;;;;;;4936165;29;20441;-77
2022/09/28 13:50:11;;;;;;;0.80;0.60;;;15.70;65.30;;;;;;4936251;29;20428;-77
2022/09/28 13:52:45;;;;;;;1.13;0.80;;;15.80;66.10;;;;;;4936069;29;20490;-78
2022/09/28 13:55:24;;;;;;;0.70;0.70;;;15.80;64.30;;;;;;4935956;29;20991;-77
2022/09/28 13:57:56;;;;;;;0.70;0.60;;;15.70;63.90;;;;;;4936585;29;20429;-77
2022/09/28 14:00:28;;;;;;;0.60;0.60;;;15.80;62.10;;;;;;4936112;29;20440;-77
2022/09/28 14:03:00;;;;;;;0.70;0.60;;;16.00;60.80;;;;;;4935770;29;20844;-78
2022/09/28 14:05:46;;;;;;;0.70;0.70;;;16.10;60.70;;;;;;4936078;29;20447;-77
2022/09/28 14:08:34;;;;;;;0.70;0.70;;;16.00;61.70;;;;;;4935654;29;20909;-77
2022/09/28 14:11:24;;;;;;;0.60;0.60;;;15.80;61.20;;;;;;4936698;29;20897;-77
2022/09/28 14:14:02;;;;;;;0.60;0.50;;;15.80;63.40;;;;;;4935996;29;20534;-78
2022/09/28 14:16:31;;;;;;;0.60;0.60;;;15.80;63.80;;;;;;4936264;29;20460;-78
2022/09/28 14:19:02;;;;;;;0.60;0.60;;;15.80;64.00;;;;;;4937912;29;20495;-78
2022/09/28 14:21:56;;;;;;;0.60;0.60;;;15.70;63.30;;;;;;4939776;29;20483;-77
2022/09/28 14:24:39;;;;;;;0.67;0.60;;;15.40;63.70;;;;;;4939607;29;20534;-77
2022/09/28 14:27:27;;;;;;;0.60;0.60;;;15.50;64.90;;;;;;4939628;29;20435;-78
2022/09/28 14:30:06;;;;;;;0.87;0.87;;;15.70;63.60;;;;;;4939672;29;20428;-77
2022/09/28 14:32:35;;;;;;;1.53;0.70;;;15.80;63.80;;;;;;4939406;29;20475;-78
2022/09/28 14:35:04;;;;;;;0.70;0.57;;;15.50;62.20;;;;;;4939295;29;20456;-77
2022/09/28 14:43:26;;;;;;;0.80;0.60;;;15.50;63.00;;;;;;4939377;29;20779;-77
2022/09/28 14:46:27;;;;;;;0.60;0.60;;;15.60;62.50;;;;;;4939119;29;20440;-77
2022/09/28 14:48:55;;;;;;;0.60;0.60;;;15.70;60.90;;;;;;4939159;29;20503;-77
2022/09/28 14:52:01;;;;;;;0.60;0.50;;;15.60;61.80;;;;;;4938643;29;20984;-77
2022/09/28 14:54:44;;;;;;;0.60;0.60;;;15.70;62.00;;;;;;4939160;29;20804;-77
2022/09/28 14:57:18;;;;;;;0.60;0.60;;;15.90;62.60;;;;;;4938689;29;20934;-78
2022/09/28 14:59:46;;;;;;;0.60;0.60;;;16.10;61.70;;;;;;4938909;29;20527;-77
2022/09/28 15:02:22;;;;;;;0.60;0.60;;;15.80;62.70;;;;;;4938364;29;20999;-77
2022/09/28 15:04:53;;;;;;;0.60;0.60;;;15.60;62.60;;;;;;4938865;29;20442;-77
2022/09/28 15:07:22;;;;;;;0.60;0.50;;;15.40;62.70;;;;;;4938571;29;20451;-77
2022/09/28 15:09:52;;;;;;;0.70;0.70;;;15.10;63.20;;;;;;4938840;29;20927;-77
2022/09/28 15:12:22;;;;;;;0.60;0.60;;;15.20;64.50;;;;;;4938900;29;20484;-77
2022/09/28 15:14:55;;;;;;;0.60;0.50;;;15.10;63.50;;;;;;4940200;29;20446;-77
2022/09/28 15:17:25;;;;;;;0.60;0.57;;;15.00;65.30;;;;;;4941031;29;20445;-77
2022/09/28 15:20:08;;;;;;;0.60;0.50;;;15.10;65.80;;;;;;4946372;29;20487;-77
2022/09/28 15:22:36;;;;;;;0.60;0.60;;;15.10;65.20;;;;;;4944903;29;20472;-77
2022/09/28 15:25:14;;;;;;;0.60;0.60;;;15.10;65.70;;;;;;4946514;29;20455;-78
2022/09/28 15:27:41;;;;;;;0.60;0.60;;;15.20;66.80;;;;;;4938773;29;20428;-77
2022/09/28 15:30:25;;;;;;;0.93;0.60;;;15.20;65.40;;;;;;4938222;29;20448;-77
2022/09/28 15:32:53;;;;;;;0.60;0.60;;;15.10;66.00;;;;;;4938076;29;20488;-78
2022/09/28 15:35:21;;;;;;;0.60;0.50;;;15.20;67.10;;;;;;4938281;29;20546;-78
2022/09/28 15:37:50;;;;;;;0.70;0.60;;;15.10;65.70;;;;;;4937927;29;20963;-78
2022/09/28 15:40:24;;;;;;;0.60;0.60;;;14.90;65.40;;;;;;4938079;29;20563;-77
2022/09/28 15:42:51;;;;;;;0.60;0.53;;;14.50;67.10;;;;;;4938155;29;20472;-77
2022/09/28 15:45:26;;;;;;;0.70;0.60;;;14.50;67.00;;;;;;4938099;29;20448;-77
2022/09/28 15:47:57;;;;;;;0.70;0.60;;;14.40;66.80;;;;;;4937813;29;20523;-77
2022/09/28 15:50:27;;;;;;;0.63;0.60;;;14.40;68.10;;;;;;4938712;29;20529;-77
2022/09/28 15:52:59;;;;;;;0.60;0.50;;;14.50;67.20;;;;;;4938008;29;20540;-78
2022/09/28 15:55:30;;;;;;;0.60;0.60;;;14.30;67.70;;;;;;4938058;29;20448;-78
2022/09/28 15:58:15;;;;;;;1.20;0.67;;;14.40;68.30;;;;;;4938102;29;20440;-77
2022/09/28 16:00:45;;;;;;;0.60;0.50;;;14.40;69.10;;;;;;4937754;29;20447;-76
2022/09/28 16:03:23;;;;;;;0.70;0.60;;;14.10;67.50;;;;;;4937901;29;20788;-77
2022/09/28 16:05:52;;;;;;;0.70;0.70;;;13.80;68.60;;;;;;4937411;29;20906;-77
2022/09/28 16:08:23;;;;;;;0.60;0.50;;;13.90;69.20;;;;;;4937676;29;20512;-77
2022/09/28 16:11:10;;;;;;;0.60;0.60;;;14.00;69.00;;;;;;4937441;29;21098;-77
2022/09/28 16:13:46;;;;;;;0.63;0.60;;;14.20;68.90;;;;;;4937667;29;20447;-77
2022/09/28 16:16:16;;;;;;;0.80;0.70;;;14.20;68.60;;;;;;4937526;29;20452;-78
2022/09/28 16:18:47;;;;;;;0.60;0.50;;;14.30;68.70;;;;;;4937737;29;20538;-77
2022/09/28 16:21:38;;;;;;;0.70;0.60;;;14.40;68.70;;;;;;4937489;29;20563;-77
2022/09/28 16:24:06;;;;;;;0.60;0.60;;;14.30;68.20;;;;;;4937434;29;20448;-77